Tenjinmaru No11 — JD3353 — position and weather

sailwx.info

Track history (hours):
 
Tides and Currents Weather Stations Pressure Air Temp Water Temp Dewpoint Dewpoint Depression Visibility Wind Speed Wind Dir Waves Ship Positions

Tenjinmaru No11

Last reported at 2014-Dec-15 09:27 UTC. Time now 2014-Dec-18 02:30 UTC.
Position N 34°06' E 135°02'.

Length 75 m; draft 4.2 m.

Type: Cargo ship. MMSI: 431003485.

Date/timePositionNaut miles runAvg speedWind from/ knotsBaromVisibWave heightAir tempDewpointWater temp
2014-Dec-15 09:27N 34°06' E 135°02'1112.3
2014-Dec-15 08:33N 34°17' E 135°03'1311.9
2014-Dec-15 07:30N 34°27' E 135°12'1111.8
2014-Dec-15 06:33N 34°35' E 135°22'5 0.1
2014-Dec-13 21:17N 34°35' E 135°27'0 0.0
2014-Dec-13 13:25N 34°35' E 135°27'0 0.0
2014-Dec-13 02:06N 34°35' E 135°28'0 0.0
2014-Dec-12 07:10N 34°35' E 135°28'3 5.2
2014-Dec-12 06:33N 34°36' E 135°24'1211.8
2014-Dec-12 05:29N 34°27' E 135°13'1211.8
2014-Dec-12 04:26N 34°17' E 135°04'1111.8
2014-Dec-12 03:32N 34°07' E 135°02'  
2014-Dec-09 22:14N 33°59' E 135°01'810.9
2014-Dec-09 21:32N 34°07' E 134°60'1411.9
2014-Dec-09 20:21N 34°21' E 134°59'1011.9
2014-Dec-09 19:32N 34°31' E 135°02'9 9.6
2014-Dec-09 18:33N 34°37' E 134°54'3 0.3
2014-Dec-09 08:32N 34°37' E 134°58'10 9.8
2014-Dec-09 07:33N 34°36' E 135°09'1212.1
2014-Dec-09 06:33N 34°36' E 135°24'3 2.6
2014-Dec-09 05:14N 34°34' E 135°27'0 0.0
2014-Dec-09 04:31N 34°34' E 135°27'0 0.0
2014-Dec-09 02:17N 34°34' E 135°27'0 0.0
2014-Dec-09 01:30N 34°34' E 135°27'0 0.0
2014-Dec-09 00:26N 34°34' E 135°27'0 0.0
2014-Dec-08 18:22N 34°34' E 135°27'0 0.0
2014-Dec-08 08:29N 34°34' E 135°27'0 0.0
2014-Dec-08 07:33N 34°34' E 135°27'0 0.0
2014-Dec-08 06:33N 34°34' E 135°27'0 0.0
2014-Dec-08 05:33N 34°34' E 135°27'0 0.0
2014-Dec-08 04:32N 34°34' E 135°27'0 0.0
2014-Dec-08 03:33N 34°34' E 135°27'0 0.0
2014-Dec-08 02:33N 34°34' E 135°27'0 0.0
2014-Dec-08 01:33N 34°34' E 135°27'0 0.0
2014-Dec-08 00:33N 34°34' E 135°27'0 0.0
2014-Dec-07 23:33N 34°34' E 135°27'1 0.0
2014-Dec-05 23:33N 34°35' E 135°27'1 0.6
2014-Dec-05 22:28N 34°35' E 135°27'0 0.0
2014-Dec-05 21:31N 34°35' E 135°27'0 0.0
2014-Dec-05 20:33N 34°35' E 135°27'0 0.0
2014-Dec-05 19:33N 34°35' E 135°27'5 5.0
2014-Dec-05 18:33N 34°35' E 135°21'1111.2
2014-Dec-05 17:33N 34°26' E 135°11'1310.7
2014-Dec-05 16:21N 34°18' E 134°60'8 9.4
2014-Dec-05 15:33N 34°10' E 134°60'  
Track history (hours):
 
Tides and Currents Weather Stations Pressure Air Temp Water Temp Dewpoint Dewpoint Depression Visibility Wind Speed Wind Dir Waves Ship Positions

Tenjinmaru No11

Last reported at 2014-Dec-15 09:27 UTC. Time now 2014-Dec-18 02:30 UTC.
Position N 34°06' E 135°02'.

Length 75 m; draft 4.2 m.

Type: Cargo ship. MMSI: 431003485.

Date/timePositionNaut miles runAvg speedWind from/ knotsBaromVisibWave heightAir tempDewpointWater temp
2014-Dec-15 09:27N 34°06' E 135°02'1112.3
2014-Dec-15 08:33N 34°17' E 135°03'1311.9
2014-Dec-15 07:30N 34°27' E 135°12'1111.8
2014-Dec-15 06:33N 34°35' E 135°22'5 0.1
2014-Dec-13 21:17N 34°35' E 135°27'0 0.0
2014-Dec-13 13:25N 34°35' E 135°27'0 0.0
2014-Dec-13 02:06N 34°35' E 135°28'0 0.0
2014-Dec-12 07:10N 34°35' E 135°28'3 5.2
2014-Dec-12 06:33N 34°36' E 135°24'1211.8
2014-Dec-12 05:29N 34°27' E 135°13'1211.8
2014-Dec-12 04:26N 34°17' E 135°04'1111.8
2014-Dec-12 03:32N 34°07' E 135°02'  
2014-Dec-09 22:14N 33°59' E 135°01'810.9
2014-Dec-09 21:32N 34°07' E 134°60'1411.9
2014-Dec-09 20:21N 34°21' E 134°59'1011.9
2014-Dec-09 19:32N 34°31' E 135°02'9 9.6
2014-Dec-09 18:33N 34°37' E 134°54'3 0.3
2014-Dec-09 08:32N 34°37' E 134°58'10 9.8
2014-Dec-09 07:33N 34°36' E 135°09'1212.1
2014-Dec-09 06:33N 34°36' E 135°24'3 2.6
2014-Dec-09 05:14N 34°34' E 135°27'0 0.0
2014-Dec-09 04:31N 34°34' E 135°27'0 0.0
2014-Dec-09 02:17N 34°34' E 135°27'0 0.0
2014-Dec-09 01:30N 34°34' E 135°27'0 0.0
2014-Dec-09 00:26N 34°34' E 135°27'0 0.0
2014-Dec-08 18:22N 34°34' E 135°27'0 0.0
2014-Dec-08 08:29N 34°34' E 135°27'0 0.0
2014-Dec-08 07:33N 34°34' E 135°27'0 0.0
2014-Dec-08 06:33N 34°34' E 135°27'0 0.0
2014-Dec-08 05:33N 34°34' E 135°27'0 0.0
2014-Dec-08 04:32N 34°34' E 135°27'0 0.0
2014-Dec-08 03:33N 34°34' E 135°27'0 0.0
2014-Dec-08 02:33N 34°34' E 135°27'0 0.0
2014-Dec-08 01:33N 34°34' E 135°27'0 0.0
2014-Dec-08 00:33N 34°34' E 135°27'0 0.0
2014-Dec-07 23:33N 34°34' E 135°27'1 0.0
2014-Dec-05 23:33N 34°35' E 135°27'1 0.6
2014-Dec-05 22:28N 34°35' E 135°27'0 0.0
2014-Dec-05 21:31N 34°35' E 135°27'0 0.0
2014-Dec-05 20:33N 34°35' E 135°27'0 0.0
2014-Dec-05 19:33N 34°35' E 135°27'5 5.0
2014-Dec-05 18:33N 34°35' E 135°21'1111.2
2014-Dec-05 17:33N 34°26' E 135°11'1310.7
2014-Dec-05 16:21N 34°18' E 134°60'8 9.4
2014-Dec-05 15:33N 34°10' E 134°60'  

Dump ship's entire track history